createdAt,value
2023-04-27T07:19:13.618Z,49.46
2023-04-27T07:19:24.543Z,39.64
2023-04-27T07:19:34.892Z,36.36
2023-04-27T07:19:45.176Z,35.90
2023-04-27T07:19:55.272Z,37.18
2023-04-27T07:20:05.546Z,38.82
2023-04-27T07:20:15.805Z,39.77
2023-04-27T07:20:26.120Z,41.12
2023-04-27T07:20:36.377Z,42.17
2023-04-27T07:20:46.636Z,43.32
2023-04-27T07:20:56.961Z,45.09
2023-04-27T07:21:07.243Z,46.33
2023-04-27T07:21:17.540Z,47.49
2023-04-27T07:21:27.824Z,47.89
2023-04-27T07:21:38.082Z,48.11
2023-04-27T07:21:48.461Z,48.04
2023-04-27T07:21:58.578Z,49.18
2023-04-27T07:22:08.837Z,49.30
2023-04-27T07:22:19.125Z,49.76
2023-04-27T07:22:29.382Z,50.39
2023-04-27T07:22:39.682Z,51.35
2023-04-27T07:22:49.987Z,52.93
2023-04-27T07:23:00.260Z,54.51
2023-04-27T07:23:10.621Z,55.46
2023-04-27T07:23:20.796Z,56.63
2023-04-27T07:23:30.931Z,57.79
2023-04-27T07:23:41.325Z,59.48
2023-04-27T07:23:51.873Z,60.84
2023-04-27T07:24:01.752Z,61.79
2023-04-27T07:24:12.113Z,62.43
2023-04-27T07:24:22.230Z,63.07
2023-04-27T07:24:32.530Z,63.79
2023-04-27T07:24:42.823Z,65.06
2023-04-27T07:24:53.480Z,66.31
2023-04-27T07:25:03.500Z,67.07
2023-04-27T07:25:13.624Z,67.89
2023-04-27T07:25:23.942Z,69.05
2023-04-27T07:25:34.211Z,69.90
2023-04-27T07:25:44.515Z,70.01
2023-04-27T07:25:54.942Z,69.22
2023-04-27T07:26:05.067Z,69.01
2023-04-27T07:26:15.382Z,69.66
2023-04-27T07:26:25.662Z,70.42
2023-04-27T07:26:35.966Z,71.24
2023-04-27T07:26:46.275Z,71.86
2023-04-27T07:26:56.569Z,72.16
2023-04-27T07:27:06.862Z,72.37
2023-04-27T07:27:17.160Z,72.92
2023-04-27T07:27:27.465Z,73.33
2023-04-27T07:27:37.725Z,74.29
2023-04-27T07:27:48.043Z,75.26
2023-04-27T07:27:58.360Z,76.49
2023-04-27T07:28:08.658Z,77.62
2023-04-27T07:28:18.961Z,78.18
2023-04-27T07:28:29.278Z,78.49
2023-04-27T07:28:39.415Z,79.11
2023-04-27T07:28:49.708Z,80.07
2023-04-27T07:29:00.322Z,80.48
2023-04-27T07:29:25.612Z,80.69
2023-04-27T07:29:33.606Z,80.28
2023-04-27T07:29:39.593Z,80.48
2023-04-27T07:29:49.904Z,80.69
2023-04-27T07:30:00.184Z,80.28
2023-04-27T07:30:10.494Z,80.79
2023-04-27T07:30:20.878Z,81.31
2023-04-27T07:30:41.263Z,80.52
2023-04-27T07:30:51.579Z,80.42
2023-04-27T07:31:01.890Z,80.62
2023-04-27T07:31:12.217Z,81.04
2023-04-27T07:31:22.385Z,81.24
2023-04-27T07:31:32.658Z,81.45
2023-04-27T07:31:43.053Z,81.66
2023-04-27T07:31:53.214Z,81.86
2023-04-27T07:32:03.518Z,82.52
2023-04-27T07:32:13.970Z,82.93
2023-04-27T07:32:24.152Z,83.65
2023-04-27T07:32:34.307Z,83.97
2023-04-27T07:32:44.534Z,83.76
2023-04-27T07:32:54.881Z,83.45
2023-04-27T07:33:04.985Z,83.34
2023-04-27T07:33:15.221Z,83.45
2023-04-27T07:33:25.423Z,83.65
2023-04-27T07:33:35.512Z,83.76
2023-04-27T07:33:45.792Z,84.00
2023-04-27T07:33:56.200Z,84.52
2023-04-27T07:34:06.370Z,84.63
2023-04-27T07:34:16.500Z,84.31
2023-04-27T07:34:28.003Z,84.42
2023-04-27T07:34:51.761Z,84.63
2023-04-27T07:34:59.383Z,84.94
2023-04-27T07:35:05.037Z,84.83
2023-04-27T07:35:15.308Z,84.83
2023-04-27T07:35:25.793Z,85.24
2023-04-27T07:35:35.780Z,85.70
2023-04-27T07:35:46.050Z,85.70
2023-04-27T07:36:06.538Z,85.80
2023-04-27T07:36:16.817Z,86.01
2023-04-27T07:36:27.106Z,86.01
2023-04-27T07:36:37.388Z,86.01
2023-04-27T07:36:47.676Z,85.91
2023-04-27T07:36:57.949Z,85.91
2023-04-27T07:37:08.238Z,86.21
2023-04-27T07:37:18.469Z,86.11
2023-04-27T07:37:28.760Z,85.91
2023-04-27T07:37:39.009Z,85.91
2023-04-27T07:37:49.289Z,85.70
2023-04-27T07:37:59.610Z,85.91
2023-04-27T07:38:09.885Z,86.11
2023-04-27T07:38:20.164Z,86.52
2023-04-27T07:38:30.496Z,87.15
2023-04-27T07:38:40.597Z,87.04
2023-04-27T07:38:50.856Z,86.73
2023-04-27T07:39:01.210Z,86.83
2023-04-27T07:39:11.739Z,87.66
2023-04-27T07:39:21.994Z,88.49
2023-04-27T07:39:31.986Z,88.49
2023-04-27T07:39:42.259Z,87.97
2023-04-27T07:39:52.530Z,87.56
2023-04-27T07:40:02.790Z,87.15
2023-04-27T07:40:13.200Z,87.25
2023-04-27T07:40:23.362Z,87.66
2023-04-27T07:40:33.669Z,88.07
2023-04-27T07:40:44.837Z,88.28
2023-04-27T07:40:54.131Z,88.39
2023-04-27T07:41:04.561Z,88.07
2023-04-27T07:41:14.709Z,88.22
2023-04-27T07:41:24.979Z,88.28
2023-04-27T07:41:35.245Z,88.18
2023-04-27T07:41:45.545Z,88.80
2023-04-27T07:41:55.847Z,88.80
2023-04-27T07:42:06.167Z,88.39
2023-04-27T07:42:16.464Z,88.07
2023-04-27T07:42:26.733Z,88.07
2023-04-27T07:42:37.017Z,87.97
2023-04-27T07:42:47.294Z,87.81
2023-04-27T07:42:57.511Z,87.87
2023-04-27T07:43:07.784Z,88.12
2023-04-27T07:43:18.067Z,88.53
2023-04-27T07:43:28.480Z,88.43
2023-04-27T07:43:38.598Z,88.64
2023-04-27T07:43:48.845Z,88.53
2023-04-27T07:43:59.094Z,88.53
2023-04-27T07:44:09.367Z,88.53
2023-04-27T07:44:19.648Z,88.64
2023-04-27T07:44:29.966Z,88.74
2023-04-27T07:44:40.319Z,88.94
2023-04-27T07:44:50.600Z,89.25
2023-04-27T07:45:01.016Z,89.77
2023-04-27T07:45:11.117Z,89.56
2023-04-27T07:45:21.388Z,89.25
2023-04-27T07:45:31.840Z,88.94
2023-04-27T07:45:42.031Z,88.22
2023-04-27T07:45:52.196Z,87.91
2023-04-27T07:46:02.602Z,88.43
2023-04-27T07:46:12.895Z,88.53
2023-04-27T07:46:22.913Z,88.43
2023-04-27T07:46:33.127Z,88.43
2023-04-27T07:46:43.336Z,88.53
2023-04-27T07:46:53.607Z,88.53
2023-04-27T07:47:03.908Z,88.64
2023-04-27T07:47:14.239Z,88.74
2023-04-27T07:47:24.500Z,89.46
2023-04-27T07:47:34.656Z,89.98
2023-04-27T07:47:44.978Z,90.08
2023-04-27T07:47:56.428Z,89.83
2023-04-27T07:48:05.594Z,89.42
2023-04-27T07:48:16.695Z,88.70
2023-04-27T07:48:26.186Z,87.97
2023-04-27T07:48:36.390Z,87.46
2023-04-27T07:48:46.748Z,87.04
2023-04-27T07:48:56.911Z,86.83
2023-04-27T07:49:07.209Z,86.83
2023-04-27T07:49:17.533Z,86.94
2023-04-27T07:49:27.810Z,87.04
2023-04-27T07:49:38.122Z,87.35
2023-04-27T07:49:48.693Z,87.35
2023-04-27T07:49:58.067Z,87.56
2023-04-27T07:50:09.415Z,87.56
2023-04-27T07:50:19.557Z,87.35
2023-04-27T07:50:29.842Z,87.66
2023-04-27T07:50:40.179Z,88.07
2023-04-27T07:50:50.226Z,88.18
2023-04-27T07:51:00.477Z,88.18
2023-04-27T07:51:10.734Z,87.76
2023-04-27T07:51:21.000Z,87.46
2023-04-27T07:51:31.257Z,87.15
2023-04-27T07:51:41.487Z,87.15
2023-04-27T07:51:51.750Z,87.70
2023-04-27T07:52:02.041Z,87.60
2023-04-27T07:52:12.361Z,87.49
2023-04-27T07:52:22.695Z,87.08
2023-04-27T07:52:32.779Z,87.18
2023-04-27T07:52:43.039Z,87.29
2023-04-27T07:52:53.305Z,87.60
2023-04-27T07:53:03.590Z,87.81
2023-04-27T07:53:13.901Z,87.91
2023-04-27T07:53:24.191Z,87.91
2023-04-27T07:53:34.488Z,87.91
2023-04-27T07:53:47.254Z,87.91
2023-04-27T07:53:55.083Z,88.53
2023-04-27T07:54:05.345Z,88.74
2023-04-27T07:54:15.639Z,88.94
2023-04-27T07:54:25.915Z,88.84
2023-04-27T07:54:36.209Z,88.53
2023-04-27T07:54:46.471Z,88.64
2023-04-27T07:54:56.757Z,88.94
2023-04-27T07:55:07.046Z,88.53
2023-04-27T07:55:17.309Z,88.46
2023-04-27T07:55:27.620Z,88.36
2023-04-27T07:55:37.891Z,88.67
2023-04-27T07:55:48.175Z,89.29
2023-04-27T07:55:58.448Z,89.46
2023-04-27T07:56:08.736Z,89.46
2023-04-27T07:56:18.995Z,89.61
2023-04-27T07:56:29.203Z,90.08
2023-04-27T07:56:39.433Z,90.08
2023-04-27T07:56:49.783Z,89.81
2023-04-27T07:56:59.878Z,89.92
2023-04-27T07:57:10.156Z,89.81
2023-04-27T07:57:20.397Z,89.71
2023-04-27T07:57:30.667Z,89.92
2023-04-27T07:57:40.960Z,90.33
2023-04-27T07:57:51.256Z,90.33
2023-04-27T07:58:01.507Z,90.12
2023-04-27T07:58:11.817Z,90.02
2023-04-27T07:58:22.091Z,89.71
2023-04-27T07:58:32.368Z,89.19
2023-04-27T07:58:42.604Z,89.04
2023-04-27T07:58:52.954Z,89.36
2023-04-27T07:59:03.082Z,89.25
2023-04-27T07:59:13.608Z,89.15
2023-04-27T07:59:23.580Z,89.04
2023-04-27T07:59:33.862Z,88.84
2023-04-27T07:59:44.107Z,88.64
2023-04-27T07:59:54.403Z,88.64
2023-04-27T08:00:04.709Z,88.74
2023-04-27T08:00:14.843Z,88.64
2023-04-27T08:00:25.189Z,88.53
2023-04-27T08:00:35.284Z,88.43
2023-04-27T08:00:45.575Z,88.94
2023-04-27T08:00:55.872Z,89.25
2023-04-27T08:01:06.143Z,89.87
2023-04-27T08:01:17.192Z,90.29
2023-04-27T08:01:27.111Z,91.01
2023-04-27T08:01:36.926Z,91.32
2023-04-27T08:01:47.186Z,90.97
2023-04-27T08:02:17.028Z,90.66
2023-04-27T08:02:24.309Z,90.56
2023-04-27T08:02:30.131Z,90.70
2023-04-27T08:02:40.444Z,90.87
2023-04-27T08:02:50.645Z,91.28
2023-04-27T08:03:00.911Z,91.17
2023-04-27T08:03:11.100Z,90.66
2023-04-27T08:03:31.844Z,89.94
2023-04-27T08:03:42.090Z,89.94
2023-04-27T08:03:52.066Z,89.73
2023-04-27T08:04:02.421Z,89.62
2023-04-27T08:04:12.568Z,89.62
2023-04-27T08:04:22.964Z,89.73
2023-04-27T08:04:33.192Z,89.67
2023-04-27T08:04:43.346Z,89.15
2023-04-27T08:04:53.521Z,88.94
2023-04-27T08:05:04.111Z,88.74
2023-04-27T08:05:14.428Z,88.74
2023-04-27T08:05:24.702Z,88.74
2023-04-27T08:05:34.564Z,88.74
2023-04-27T08:05:44.808Z,88.53
2023-04-27T08:05:55.022Z,88.64
2023-04-27T08:06:05.579Z,88.74
2023-04-27T08:06:15.618Z,88.53
2023-04-27T08:06:26.009Z,88.32
2023-04-27T08:06:36.650Z,88.43
2023-04-27T08:06:47.037Z,88.39
2023-04-27T08:06:56.646Z,87.97
2023-04-27T08:07:07.137Z,87.56
2023-04-27T08:07:17.453Z,87.35
2023-04-27T08:07:27.765Z,87.35
2023-04-27T08:07:42.563Z,87.76
2023-04-27T08:07:50.178Z,87.56
2023-04-27T08:07:58.519Z,87.66
2023-04-27T08:08:08.811Z,87.46
2023-04-27T08:08:18.836Z,87.76
2023-04-27T08:08:28.948Z,87.87
2023-04-27T08:08:39.271Z,87.76
2023-04-27T08:08:59.911Z,86.83
2023-04-27T08:09:10.050Z,87.04
2023-04-27T08:09:20.275Z,87.15
2023-04-27T08:09:30.573Z,87.70
2023-04-27T08:09:40.890Z,88.39
2023-04-27T08:09:51.184Z,89.15
2023-04-27T08:10:01.479Z,88.43
2023-04-27T08:10:11.803Z,87.81
2023-04-27T08:10:22.120Z,87.39
2023-04-27T08:10:32.436Z,87.49
2023-04-27T08:10:42.771Z,87.70
2023-04-27T08:10:53.065Z,88.32
2023-04-27T08:11:03.349Z,89.36
2023-04-27T08:11:13.708Z,89.56
2023-04-27T08:11:23.840Z,89.67
2023-04-27T08:11:34.180Z,88.84
2023-04-27T08:11:44.376Z,88.12
2023-04-27T08:11:54.519Z,88.32
2023-04-27T08:12:04.822Z,88.64
2023-04-27T08:12:15.119Z,88.53
2023-04-27T08:12:25.416Z,88.12
2023-04-27T08:12:35.627Z,87.39
2023-04-27T08:12:45.947Z,86.88
2023-04-27T08:12:56.211Z,86.67
2023-04-27T08:13:06.500Z,86.67
2023-04-27T08:13:16.808Z,86.77
2023-04-27T08:13:27.100Z,86.88
2023-04-27T08:13:37.428Z,86.88
2023-04-27T08:13:47.557Z,86.67
2023-04-27T08:13:57.931Z,86.77
2023-04-27T08:14:08.154Z,87.18
2023-04-27T08:14:18.258Z,87.39
2023-04-27T08:14:28.547Z,87.49
2023-04-27T08:14:38.876Z,87.39
2023-04-27T08:14:49.100Z,87.70
2023-04-27T08:14:59.435Z,88.01
2023-04-27T08:15:09.551Z,88.32
2023-04-27T08:15:19.798Z,88.32
2023-04-27T08:15:29.938Z,88.01
2023-04-27T08:15:40.242Z,87.81
2023-04-27T08:15:50.586Z,87.91
2023-04-27T08:16:00.866Z,88.12
2023-04-27T08:16:11.221Z,88.53
2023-04-27T08:16:21.390Z,88.43
2023-04-27T08:16:31.798Z,88.01
2023-04-27T08:16:42.006Z,87.70
2023-04-27T08:16:52.272Z,87.29
2023-04-27T08:17:02.591Z,86.98
2023-04-27T08:17:12.700Z,86.77
2023-04-27T08:17:22.866Z,86.77
2023-04-27T08:17:33.251Z,86.88
2023-04-27T08:17:43.419Z,87.29
2023-04-27T08:17:53.724Z,87.29
2023-04-27T08:18:04.000Z,87.49
2023-04-27T08:18:14.121Z,87.49
2023-04-27T08:18:24.383Z,87.29
2023-04-27T08:18:34.725Z,87.08
2023-04-27T08:18:44.869Z,87.04
2023-04-27T08:18:55.079Z,87.04
2023-04-27T08:19:05.380Z,87.15
2023-04-27T08:19:16.115Z,87.35
2023-04-27T08:19:26.061Z,87.56
2023-04-27T08:19:36.200Z,87.56
2023-04-27T08:19:46.543Z,87.66
2023-04-27T08:19:56.879Z,87.76
2023-04-27T08:20:07.044Z,87.97
2023-04-27T08:20:17.176Z,87.97
2023-04-27T08:20:27.460Z,88.07
2023-04-27T08:20:37.769Z,88.39
2023-04-27T08:20:48.084Z,88.49
2023-04-27T08:20:58.382Z,88.28
2023-04-27T08:21:08.704Z,87.97
2023-04-27T08:21:19.031Z,87.97
2023-04-27T08:21:29.344Z,87.87
2023-04-27T08:21:39.572Z,87.18
2023-04-27T08:21:49.866Z,86.67
2023-04-27T08:22:00.120Z,86.46
2023-04-27T08:22:10.354Z,86.15
2023-04-27T08:22:20.628Z,86.36
2023-04-27T08:22:30.859Z,86.46
2023-04-27T08:22:41.176Z,86.15
2023-04-27T08:22:51.487Z,86.15
2023-04-27T08:23:01.804Z,86.63
2023-04-27T08:23:11.946Z,87.04
2023-04-27T08:23:22.212Z,86.94
2023-04-27T08:23:32.521Z,86.83
2023-04-27T08:23:42.794Z,86.42
2023-04-27T08:23:53.104Z,86.63
2023-04-27T08:24:03.400Z,87.46
2023-04-27T08:24:13.684Z,87.87
2023-04-27T08:24:24.036Z,87.97
2023-04-27T08:24:34.188Z,87.87
2023-04-27T08:24:44.328Z,88.07
2023-04-27T08:24:54.649Z,88.07
2023-04-27T08:25:04.785Z,87.76
2023-04-27T08:25:15.115Z,87.87
2023-04-27T08:25:25.420Z,88.39
2023-04-27T08:25:35.638Z,88.70
2023-04-27T08:25:45.939Z,88.70
2023-04-27T08:25:56.266Z,88.39
2023-04-27T08:26:06.596Z,88.07
2023-04-27T08:26:16.748Z,88.18
2023-04-27T08:26:27.040Z,88.39
2023-04-27T08:26:37.391Z,88.39
2023-04-27T08:26:47.536Z,88.18
2023-04-27T08:26:57.868Z,88.07
2023-04-27T08:27:08.003Z,87.87
2023-04-27T08:27:18.321Z,87.56
2023-04-27T08:27:28.587Z,87.46
2023-04-27T08:27:38.856Z,87.66
2023-04-27T08:27:49.164Z,87.87
2023-04-27T08:27:59.437Z,87.76
2023-04-27T08:28:10.501Z,87.97
2023-04-27T08:28:19.937Z,87.97
2023-04-27T08:28:30.181Z,88.18
2023-04-27T08:28:40.501Z,88.07
2023-04-27T08:28:50.798Z,88.24
2023-04-27T08:29:04.743Z,88.04
2023-04-27T08:29:24.121Z,87.93
2023-04-27T08:29:32.549Z,87.31
2023-04-27T08:29:38.695Z,86.69
2023-04-27T08:29:48.808Z,86.90
2023-04-27T08:29:59.106Z,86.49
2023-04-27T08:30:09.417Z,85.66
2023-04-27T08:30:19.728Z,84.94
2023-04-27T08:30:40.297Z,84.21
2023-04-27T08:30:50.600Z,84.31
2023-04-27T08:31:01.154Z,84.59
2023-04-27T08:31:11.226Z,85.10
2023-04-27T08:31:21.456Z,84.11
2023-04-27T08:31:31.673Z,83.28
2023-04-27T08:31:41.878Z,82.93
2023-04-27T08:31:53.734Z,82.66
2023-04-27T08:32:02.270Z,82.66
2023-04-27T08:32:12.581Z,82.45
2023-04-27T08:32:22.733Z,82.45
2023-04-27T08:32:33.041Z,82.45
2023-04-27T08:32:43.388Z,82.25
2023-04-27T08:32:53.605Z,82.35
2023-04-27T08:33:03.924Z,82.15
2023-04-27T08:33:14.012Z,82.15
2023-04-27T08:33:24.164Z,82.25
2023-04-27T08:33:34.309Z,82.35
2023-04-27T08:33:44.641Z,82.52
2023-04-27T08:33:54.801Z,82.62
2023-04-27T08:34:05.096Z,82.00
2023-04-27T08:34:15.431Z,81.70
2023-04-27T08:34:25.874Z,81.70
2023-04-27T08:34:36.121Z,81.80
2023-04-27T08:34:46.282Z,81.90
2023-04-27T08:34:56.664Z,82.31
2023-04-27T08:35:06.804Z,82.42
2023-04-27T08:35:17.090Z,82.62
2023-04-27T08:35:27.374Z,82.73
2023-04-27T08:35:37.682Z,82.62
2023-04-27T08:35:48.002Z,82.52
2023-04-27T08:35:58.347Z,82.73
2023-04-27T08:36:08.440Z,82.62
2023-04-27T08:36:18.800Z,82.62
2023-04-27T08:36:29.014Z,82.62
2023-04-27T08:36:39.245Z,82.52
2023-04-27T08:36:49.368Z,82.62
2023-04-27T08:36:59.685Z,82.83
2023-04-27T08:37:10.002Z,82.83
2023-04-27T08:37:20.146Z,83.14
2023-04-27T08:37:30.442Z,83.20
2023-04-27T08:37:40.744Z,83.31
2023-04-27T08:37:51.020Z,83.31
2023-04-27T08:38:01.333Z,83.20
2023-04-27T08:38:11.623Z,82.89
2023-04-27T08:38:23.144Z,82.69
2023-04-27T08:38:32.203Z,82.03
2023-04-27T08:38:42.298Z,81.72
2023-04-27T08:38:52.641Z,81.00
2023-04-27T08:39:02.801Z,80.58
2023-04-27T08:39:13.310Z,80.62
2023-04-27T08:39:23.236Z,80.93
2023-04-27T08:39:33.557Z,80.73
2023-04-27T08:39:43.959Z,80.42
2023-04-27T08:39:54.085Z,80.42
2023-04-27T08:40:04.457Z,81.56
2023-04-27T08:40:14.541Z,82.28
2023-04-27T08:40:24.821Z,81.66
2023-04-27T08:40:35.126Z,81.56
2023-04-27T08:40:45.439Z,81.45
2023-04-27T08:40:55.761Z,81.24
2023-04-27T08:41:20.260Z,81.35
2023-04-27T08:41:26.895Z,81.07
2023-04-27T08:41:32.560Z,80.56
2023-04-27T08:41:42.784Z,80.97
2023-04-27T08:41:52.941Z,81.28
2023-04-27T08:42:03.086Z,81.07
2023-04-27T08:42:13.386Z,81.07
2023-04-27T08:42:33.945Z,80.76
2023-04-27T08:42:44.237Z,80.87
2023-04-27T08:42:54.572Z,80.97
2023-04-27T08:43:04.711Z,81.07
2023-04-27T08:43:15.040Z,81.18
2023-04-27T08:43:25.345Z,81.56
2023-04-27T08:43:35.636Z,82.38
2023-04-27T08:43:45.960Z,83.00
2023-04-27T08:43:59.690Z,83.10
2023-04-27T08:44:06.539Z,82.59
2023-04-27T08:44:16.832Z,82.38
2023-04-27T08:44:27.116Z,82.28
2023-04-27T08:44:37.394Z,82.07
2023-04-27T08:44:47.699Z,82.89
2023-04-27T08:45:08.252Z,82.89
2023-04-27T08:45:18.498Z,82.75
2023-04-27T08:45:28.830Z,82.14
2023-04-27T08:45:39.131Z,81.62
2023-04-27T08:45:49.488Z,81.31
2023-04-27T08:45:59.669Z,81.00
2023-04-27T08:46:09.923Z,80.79
2023-04-27T08:46:20.182Z,82.34
2023-04-27T08:46:30.481Z,82.96
2023-04-27T08:46:40.670Z,81.93
2023-04-27T08:46:51.065Z,81.31
2023-04-27T08:47:01.389Z,81.41
2023-04-27T08:47:11.481Z,81.72
2023-04-27T08:47:31.117Z,81.51
2023-04-27T08:47:43.748Z,80.90
2023-04-27T08:47:49.983Z,80.07
2023-04-27T08:48:00.174Z,80.48
2023-04-27T08:48:10.441Z,80.38
2023-04-27T08:48:20.639Z,80.58
2023-04-27T08:48:30.822Z,81.00
2023-04-27T08:48:40.997Z,81.10
2023-04-27T08:48:51.388Z,81.21
2023-04-27T08:49:01.623Z,80.79
2023-04-27T08:49:13.159Z,80.48
2023-04-27T08:49:22.074Z,81.41
2023-04-27T08:51:01.347Z,81.51
2023-04-27T08:51:07.054Z,82.86
2023-04-27T08:51:17.117Z,82.86
2023-04-27T08:51:27.371Z,82.55
2023-04-27T08:51:37.743Z,82.30
2023-04-27T08:51:47.849Z,81.68
2023-04-27T08:52:08.403Z,79.83
2023-04-27T08:52:18.709Z,79.62
2023-04-27T08:52:29.047Z,79.72
2023-04-27T08:52:39.395Z,79.83
2023-04-27T08:52:49.540Z,79.93
2023-04-27T08:52:59.878Z,79.93
2023-04-27T08:53:10.080Z,79.52
2023-04-27T08:53:20.323Z,79.52
2023-04-27T08:53:30.574Z,80.76
2023-04-27T08:53:40.785Z,80.65
2023-04-27T08:53:51.056Z,80.55
2023-04-27T08:54:01.363Z,80.86
2023-04-27T08:54:11.639Z,81.27
2023-04-27T08:54:21.956Z,80.96
2023-04-27T08:54:32.188Z,81.07
2023-04-27T08:54:42.436Z,80.76
2023-04-27T08:54:52.683Z,80.24
2023-04-27T08:55:02.985Z,79.72
2023-04-27T08:55:15.666Z,80.14
2023-04-27T08:55:23.309Z,80.24
2023-04-27T08:55:33.627Z,79.62
2023-04-27T08:55:43.906Z,79.35
2023-04-27T08:55:54.267Z,79.55
2023-04-27T08:56:04.447Z,80.18
2023-04-27T08:56:14.592Z,81.10
2023-04-27T08:56:24.907Z,81.51
2023-04-27T08:56:35.046Z,81.31
2023-04-27T08:56:45.369Z,81.51
2023-04-27T08:56:55.674Z,82.14
2023-04-27T08:57:05.965Z,81.93
2023-04-27T08:57:16.299Z,81.86
2023-04-27T08:57:26.571Z,81.96
2023-04-27T08:57:36.826Z,82.07
2023-04-27T08:57:47.102Z,82.07
2023-04-27T08:57:57.349Z,82.07
2023-04-27T08:58:07.608Z,82.79
2023-04-27T08:58:17.841Z,83.10
2023-04-27T08:58:28.094Z,82.89
2023-04-27T08:58:38.369Z,83.10
2023-04-27T08:58:48.712Z,82.79
2023-04-27T08:58:58.943Z,82.28
2023-04-27T08:59:09.073Z,81.35
2023-04-27T08:59:19.405Z,80.21
2023-04-27T08:59:29.738Z,79.90
2023-04-27T08:59:39.888Z,80.21
2023-04-27T08:59:50.105Z,80.52
2023-04-27T09:00:00.560Z,80.62
2023-04-27T09:00:10.669Z,80.32
2023-04-27T09:00:20.996Z,80.42
2023-04-27T09:00:31.270Z,80.52
2023-04-27T09:00:41.555Z,80.42
2023-04-27T09:00:52.684Z,80.32
2023-04-27T09:01:02.111Z,80.42
2023-04-27T09:01:12.246Z,80.42
2023-04-27T09:01:22.562Z,80.32
2023-04-27T09:01:32.870Z,80.21
2023-04-27T09:01:43.200Z,80.62
2023-04-27T09:01:53.557Z,81.56
2023-04-27T09:02:03.759Z,81.56
2023-04-27T09:02:13.980Z,81.24
2023-04-27T09:02:24.105Z,81.04
2023-04-27T09:02:34.470Z,80.93
2023-04-27T09:02:44.715Z,80.42
2023-04-27T09:02:55.181Z,80.11
2023-04-27T09:03:05.380Z,81.35
2023-04-27T09:03:15.475Z,81.45
2023-04-27T09:03:25.838Z,80.73
2023-04-27T09:03:36.200Z,80.42
2023-04-27T09:03:46.289Z,80.42
2023-04-27T09:03:56.683Z,81.04
2023-04-27T09:04:06.917Z,81.35
2023-04-27T09:04:17.100Z,81.24
2023-04-27T09:04:27.300Z,81.35
2023-04-27T09:04:37.424Z,81.24
2023-04-27T09:04:47.753Z,81.35
2023-04-27T09:04:58.048Z,81.56
2023-04-27T09:05:08.173Z,81.66
2023-04-27T09:05:18.539Z,81.76
2023-04-27T09:05:28.585Z,82.17
2023-04-27T09:05:46.392Z,82.42
2023-04-27T09:06:05.366Z,82.62
2023-04-27T09:06:11.403Z,82.62
2023-04-27T09:06:19.000Z,82.52
2023-04-27T09:06:29.174Z,82.52
2023-04-27T09:06:39.461Z,82.93
2023-04-27T09:06:49.806Z,83.25
2023-04-27T09:06:59.926Z,83.25
2023-04-27T09:07:20.489Z,83.55
2023-04-27T09:07:30.824Z,83.55
2023-04-27T09:07:41.157Z,83.45
2023-04-27T09:07:51.307Z,83.34
2023-04-27T09:08:01.492Z,83.14
2023-04-27T09:08:11.607Z,83.14
2023-04-27T09:08:21.909Z,83.14
2023-04-27T09:08:32.203Z,82.93
2023-04-27T09:08:42.571Z,83.14
2023-04-27T09:08:52.706Z,83.25
2023-04-27T09:09:02.945Z,83.34
2023-04-27T09:09:13.387Z,83.55
2023-04-27T09:09:23.375Z,83.76
2023-04-27T09:09:33.618Z,84.17
2023-04-27T09:09:43.871Z,84.59
2023-04-27T09:09:54.167Z,84.89
2023-04-27T09:10:04.474Z,84.79
2023-04-27T09:10:14.707Z,84.48
2023-04-27T09:10:24.997Z,84.07
2023-04-27T09:10:35.308Z,83.72
2023-04-27T09:10:45.623Z,83.41
2023-04-27T09:10:55.929Z,83.20
2023-04-27T09:11:06.203Z,83.20
2023-04-27T09:11:16.561Z,83.20
2023-04-27T09:11:26.647Z,83.00
2023-04-27T09:11:36.949Z,83.00
2023-04-27T09:11:47.203Z,82.79
2023-04-27T09:11:57.487Z,82.79
2023-04-27T09:12:07.771Z,82.48
2023-04-27T09:12:18.146Z,82.07
2023-04-27T09:12:29.010Z,81.96
2023-04-27T09:12:38.468Z,82.28
2023-04-27T09:12:48.731Z,82.07
2023-04-27T09:12:59.144Z,81.76
2023-04-27T09:13:09.269Z,81.96
2023-04-27T09:13:19.691Z,82.28
2023-04-27T09:13:29.784Z,82.17
2023-04-27T09:13:40.087Z,82.07
2023-04-27T09:13:50.365Z,82.28
2023-04-27T09:14:00.645Z,82.17
2023-04-27T09:14:10.957Z,81.76
2023-04-27T09:14:21.292Z,81.96
2023-04-27T09:14:31.565Z,82.79
2023-04-27T09:14:41.868Z,83.00
2023-04-27T09:14:52.168Z,83.00
2023-04-27T09:15:02.540Z,83.10
2023-04-27T09:15:12.687Z,83.10
2023-04-27T09:15:22.992Z,83.31
2023-04-27T09:15:33.352Z,83.41
2023-04-27T09:15:44.576Z,83.51
2023-04-27T09:15:53.847Z,83.62
2023-04-27T09:16:04.017Z,83.83
2023-04-27T09:16:14.390Z,84.23
2023-04-27T09:16:24.689Z,84.34
2023-04-27T09:16:34.922Z,84.23
2023-04-27T09:16:45.260Z,83.72
2023-04-27T09:16:55.244Z,83.62
2023-04-27T09:17:05.569Z,83.20
2023-04-27T09:17:15.711Z,83.72
2023-04-27T09:17:26.001Z,83.83
2023-04-27T09:17:36.321Z,84.03
2023-04-27T09:17:46.759Z,83.83
2023-04-27T09:17:56.892Z,83.72
2023-04-27T09:18:07.179Z,83.51
2023-04-27T09:18:17.289Z,83.93
2023-04-27T09:18:27.533Z,84.34
2023-04-27T09:18:37.806Z,84.55
2023-04-27T09:18:48.066Z,84.13
2023-04-27T09:18:58.347Z,83.72
2023-04-27T09:19:08.584Z,83.93
2023-04-27T09:19:18.810Z,84.13
2023-04-27T09:19:29.062Z,84.13
2023-04-27T09:19:39.304Z,84.13
2023-04-27T09:19:49.522Z,84.23
2023-04-27T09:19:59.794Z,84.44
2023-04-27T09:20:10.061Z,84.65
2023-04-27T09:20:20.437Z,84.75
2023-04-27T09:20:30.562Z,84.92
2023-04-27T09:20:40.873Z,84.81
2023-04-27T09:20:51.149Z,84.72
2023-04-27T09:21:01.450Z,84.51
2023-04-27T09:21:11.789Z,84.41
2023-04-27T09:21:22.068Z,84.41
2023-04-27T09:21:32.206Z,83.89
2023-04-27T09:21:42.487Z,83.78
2023-04-27T09:21:52.790Z,83.89
2023-04-27T09:22:03.115Z,84.09
2023-04-27T09:22:13.386Z,84.81
2023-04-27T09:22:23.694Z,84.61
2023-04-27T09:22:34.013Z,83.99
2023-04-27T09:22:44.351Z,83.68
2023-04-27T09:22:54.503Z,83.06
2023-04-27T09:23:04.644Z,82.03
2023-04-27T09:23:14.932Z,81.10
2023-04-27T09:23:25.169Z,80.93
2023-04-27T09:23:35.407Z,80.93
2023-04-27T09:23:45.768Z,80.83
2023-04-27T09:23:55.846Z,80.52
2023-04-27T09:24:06.108Z,80.11
2023-04-27T09:24:16.409Z,80.00
2023-04-27T09:24:26.709Z,80.42
2023-04-27T09:24:37.029Z,80.52
2023-04-27T09:24:47.322Z,80.32
2023-04-27T09:24:57.630Z,80.21
2023-04-27T09:25:07.988Z,80.42
2023-04-27T09:25:18.125Z,80.42
2023-04-27T09:25:28.407Z,80.32
2023-04-27T09:25:38.724Z,80.32
2023-04-27T09:25:49.003Z,80.32
2023-04-27T09:25:59.296Z,80.52
2023-04-27T09:26:09.615Z,81.14
2023-04-27T09:26:19.895Z,81.35
2023-04-27T09:26:30.222Z,80.62
2023-04-27T09:26:40.526Z,80.48
2023-04-27T09:26:50.804Z,80.69
2023-04-27T09:27:01.230Z,80.69
2023-04-27T09:27:11.387Z,80.48
2023-04-27T09:27:21.726Z,80.07
2023-04-27T09:27:31.831Z,80.18
2023-04-27T09:27:42.126Z,80.69
2023-04-27T09:27:52.440Z,80.90
2023-04-27T09:28:02.725Z,80.90
2023-04-27T09:28:12.997Z,80.90
2023-04-27T09:28:23.309Z,81.00
2023-04-27T09:28:33.583Z,80.79
2023-04-27T09:28:43.882Z,80.58
2023-04-27T09:28:54.204Z,81.51
2023-04-27T09:29:04.316Z,81.93
2023-04-27T09:29:15.037Z,81.51
2023-04-27T09:29:24.848Z,81.82
2023-04-27T09:29:35.163Z,81.89
2023-04-27T09:29:45.532Z,81.68
2023-04-27T09:29:55.716Z,81.89
2023-04-27T09:30:05.844Z,82.30
2023-04-27T09:30:16.166Z,82.30
2023-04-27T09:30:26.340Z,82.71
2023-04-27T09:30:36.627Z,83.23
2023-04-27T09:30:46.900Z,83.64
2023-04-27T09:30:57.187Z,83.54
2023-04-27T09:31:07.500Z,83.33
2023-04-27T09:31:17.863Z,82.98
2023-04-27T09:31:28.007Z,83.40
2023-04-27T09:31:38.333Z,83.29
2023-04-27T09:31:48.695Z,82.89
2023-04-27T09:31:58.873Z,81.75
2023-04-27T09:32:09.047Z,80.82
2023-04-27T09:32:19.327Z,80.93
2023-04-27T09:32:29.722Z,81.03
2023-04-27T09:32:39.864Z,81.03
2023-04-27T09:32:50.262Z,80.93
2023-04-27T09:33:00.411Z,81.34
2023-04-27T09:33:10.642Z,81.03
2023-04-27T09:33:20.964Z,80.82
2023-04-27T09:33:31.215Z,81.03
2023-04-27T09:33:41.448Z,81.65
2023-04-27T09:33:51.716Z,81.54
2023-04-27T09:34:02.017Z,81.58
2023-04-27T09:34:12.461Z,82.47
2023-04-27T09:34:22.561Z,82.37
2023-04-27T09:34:32.954Z,81.54
2023-04-27T09:34:43.070Z,81.13
2023-04-27T09:34:53.334Z,81.44
2023-04-27T09:35:03.559Z,80.62
2023-04-27T09:35:14.021Z,80.00